createdAt,value
2022-11-26T00:01:20.980Z,4.82
2022-11-26T00:03:49.408Z,4.15
2022-11-26T00:06:27.817Z,4.60
2022-11-26T00:08:54.624Z,4.07
2022-11-26T00:11:21.462Z,4.07
2022-11-26T00:13:48.277Z,2.92
2022-11-26T00:16:15.679Z,3.67
2022-11-26T00:18:43.023Z,3.78
2022-11-26T00:21:28.212Z,3.33
2022-11-26T00:23:55.306Z,4.32
2022-11-26T00:26:24.854Z,3.35
2022-11-26T00:28:59.998Z,3.00
2022-11-26T00:31:28.338Z,3.70
2022-11-26T00:33:55.442Z,3.67
2022-11-26T00:36:31.810Z,3.92
2022-11-26T00:39:11.937Z,4.20
2022-11-26T00:41:39.599Z,3.78
2022-11-26T00:44:23.559Z,4.00
2022-11-26T00:46:51.628Z,5.85
2022-11-26T00:49:18.898Z,8.38
2022-11-26T00:51:46.471Z,7.63
2022-11-26T00:54:17.445Z,5.90
2022-11-26T00:56:44.426Z,4.50
2022-11-26T00:59:15.812Z,3.92
2022-11-26T01:04:09.367Z,4.10
2022-11-26T01:06:41.123Z,3.85
2022-11-26T01:09:18.726Z,3.42
2022-11-26T01:11:49.771Z,3.42
2022-11-26T01:14:21.502Z,3.40
2022-11-26T01:16:49.095Z,3.38
2022-11-26T01:19:16.575Z,3.60
2022-11-26T01:21:43.404Z,3.78
2022-11-26T01:24:10.144Z,3.58
2022-11-26T01:26:42.914Z,4.13
2022-11-26T01:29:20.004Z,3.53
2022-11-26T01:31:46.998Z,3.05
2022-11-26T01:34:14.107Z,3.38
2022-11-26T01:36:42.299Z,4.18
2022-11-26T01:39:19.806Z,3.70
2022-11-26T01:42:21.102Z,3.50
2022-11-26T01:44:47.863Z,4.07
2022-11-26T01:47:40.809Z,3.80
2022-11-26T01:50:31.843Z,3.92
2022-11-26T01:53:12.271Z,4.20
2022-11-26T01:55:47.724Z,4.37
2022-11-26T01:58:22.747Z,4.60
2022-11-26T02:00:51.342Z,5.30
2022-11-26T02:03:19.652Z,5.32
2022-11-26T02:05:58.890Z,5.82
2022-11-26T02:08:28.423Z,4.75
2022-11-26T02:10:55.357Z,5.38
2022-11-26T02:13:23.094Z,5.15
2022-11-26T02:16:12.076Z,6.38
2022-11-26T02:18:43.676Z,6.03
2022-11-26T02:21:21.095Z,6.80
2022-11-26T02:24:12.811Z,7.18
2022-11-26T02:27:13.521Z,6.68
2022-11-26T02:30:12.752Z,6.18
2022-11-26T02:33:05.491Z,6.30
2022-11-26T02:35:56.309Z,6.25
2022-11-26T02:38:30.261Z,6.55
2022-11-26T02:40:57.331Z,6.68
2022-11-26T02:43:26.174Z,5.72
2022-11-26T02:45:59.616Z,6.50
2022-11-26T02:48:34.317Z,6.38
2022-11-26T02:51:14.514Z,5.88
2022-11-26T02:54:13.844Z,6.95
2022-11-26T02:56:49.945Z,5.47
2022-11-26T02:59:38.956Z,5.72
2022-11-26T03:02:58.735Z,6.68
2022-11-26T03:05:39.397Z,6.03
2022-11-26T03:08:38.814Z,6.68
2022-11-26T03:11:38.559Z,6.55
2022-11-26T03:14:05.350Z,6.32
2022-11-26T03:16:32.261Z,6.00
2022-11-26T03:18:59.040Z,6.20
2022-11-26T03:21:25.781Z,8.20
2022-11-26T03:23:52.619Z,6.65
2022-11-26T03:26:19.382Z,7.45
2022-11-26T03:28:46.175Z,6.22
2022-11-26T03:31:13.061Z,6.70
2022-11-26T03:33:39.801Z,5.88
2022-11-26T03:36:07.021Z,5.95
2022-11-26T03:38:33.748Z,6.85
2022-11-26T03:41:03.860Z,5.78
2022-11-26T03:43:30.653Z,5.57
2022-11-26T03:45:57.726Z,5.93
2022-11-26T03:48:24.520Z,5.40
2022-11-26T03:50:51.281Z,5.72
2022-11-26T03:53:18.001Z,5.70
2022-11-26T03:55:45.137Z,5.53
2022-11-26T03:58:11.850Z,5.20
2022-11-26T04:00:39.711Z,5.03
2022-11-26T04:03:06.483Z,5.15
2022-11-26T04:05:33.290Z,4.18
2022-11-26T04:08:00.135Z,4.30
2022-11-26T04:10:26.919Z,4.28
2022-11-26T04:12:53.698Z,5.03
2022-11-26T04:15:20.445Z,4.32
2022-11-26T04:17:47.206Z,4.00
2022-11-26T04:20:14.237Z,4.97
2022-11-26T04:22:40.999Z,5.20
2022-11-26T04:25:08.353Z,6.22
2022-11-26T04:27:35.158Z,6.22
2022-11-26T04:30:02.125Z,6.65
2022-11-26T04:32:28.873Z,5.28
2022-11-26T04:34:55.658Z,5.30
2022-11-26T04:37:22.377Z,5.57
2022-11-26T04:39:49.143Z,4.97
2022-11-26T04:42:15.988Z,4.82
2022-11-26T04:44:42.973Z,4.93
2022-11-26T04:47:09.775Z,3.60
2022-11-26T04:49:36.539Z,3.75
2022-11-26T04:52:03.366Z,3.35
2022-11-26T04:54:30.204Z,3.13
2022-11-26T04:56:57.070Z,3.13
2022-11-26T04:59:23.881Z,3.35
2022-11-26T05:01:51.000Z,3.22
2022-11-26T05:04:17.737Z,4.00
2022-11-26T05:06:44.458Z,3.55
2022-11-26T05:09:11.179Z,4.55
2022-11-26T05:11:37.990Z,3.72
2022-11-26T05:14:04.724Z,3.88
2022-11-26T05:16:31.562Z,3.83
2022-11-26T05:18:58.318Z,4.13
2022-11-26T05:21:25.047Z,4.15
2022-11-26T05:23:51.791Z,4.03
2022-11-26T05:26:18.550Z,3.90
2022-11-26T05:28:45.303Z,4.85
2022-11-26T05:31:12.212Z,3.50
2022-11-26T05:33:38.989Z,4.05
2022-11-26T05:36:06.022Z,4.50
2022-11-26T05:38:32.765Z,4.75
2022-11-26T05:40:59.501Z,4.40
2022-11-26T05:43:27.322Z,4.53
2022-11-26T05:45:54.165Z,3.83
2022-11-26T05:48:20.937Z,3.55
2022-11-26T05:50:51.543Z,4.03
2022-11-26T05:53:21.135Z,4.97
2022-11-26T05:55:47.866Z,5.55
2022-11-26T05:58:14.580Z,5.43
2022-11-26T06:00:41.315Z,4.85
2022-11-26T06:03:08.206Z,4.47
2022-11-26T06:05:35.286Z,2.88
2022-11-26T06:08:02.417Z,3.80
2022-11-26T06:10:29.190Z,2.85
2022-11-26T06:12:55.943Z,2.95
2022-11-26T06:15:22.685Z,3.40
2022-11-26T06:17:49.407Z,2.97
2022-11-26T06:20:16.392Z,3.15
2022-11-26T06:22:44.152Z,3.40
2022-11-26T06:25:13.943Z,3.50
2022-11-26T06:27:41.880Z,3.60
2022-11-26T06:30:11.457Z,3.63
2022-11-26T06:32:38.387Z,3.78
2022-11-26T06:35:06.176Z,4.07
2022-11-26T06:37:33.365Z,4.50
2022-11-26T06:40:00.308Z,6.60
2022-11-26T06:42:27.202Z,7.13
2022-11-26T06:44:58.342Z,6.95
2022-11-26T06:47:26.863Z,6.03
2022-11-26T06:49:53.674Z,5.40
2022-11-26T06:52:20.397Z,4.25
2022-11-26T06:54:47.154Z,5.75
2022-11-26T06:57:13.921Z,4.90
2022-11-26T06:59:40.767Z,4.93
2022-11-26T07:02:09.156Z,5.32
2022-11-26T07:04:35.994Z,6.70
2022-11-26T07:07:02.862Z,7.43
2022-11-26T07:09:29.605Z,7.57
2022-11-26T07:11:56.348Z,7.43
2022-11-26T07:14:23.080Z,11.27
2022-11-26T07:16:49.810Z,8.07
2022-11-26T07:19:16.574Z,7.45
2022-11-26T07:21:43.393Z,7.93
2022-11-26T07:24:10.373Z,9.48
2022-11-26T07:26:37.096Z,6.88
2022-11-26T07:29:03.955Z,8.10
2022-11-26T07:31:30.763Z,6.75
2022-11-26T07:33:57.987Z,11.55
2022-11-26T07:36:30.177Z,6.38
2022-11-26T07:39:01.896Z,7.50
2022-11-26T07:41:30.350Z,12.82
2022-11-26T07:43:57.489Z,7.28
2022-11-26T07:46:25.803Z,14.88
2022-11-26T07:48:52.695Z,8.63
2022-11-26T07:51:32.220Z,9.73
2022-11-26T07:54:04.680Z,17.38
2022-11-26T07:56:31.786Z,10.88
2022-11-26T07:58:58.584Z,13.70
2022-11-26T08:01:29.457Z,18.95
2022-11-26T08:03:58.620Z,17.27
2022-11-26T08:06:29.224Z,12.40
2022-11-26T08:08:56.109Z,10.50
2022-11-26T08:11:27.031Z,10.20
2022-11-26T08:14:00.449Z,19.48
2022-11-26T08:16:29.291Z,7.78
2022-11-26T08:19:02.284Z,6.88
2022-11-26T08:21:29.253Z,7.53
2022-11-26T08:23:56.533Z,5.30
2022-11-26T08:26:33.592Z,9.23
2022-11-26T08:29:03.226Z,12.50
2022-11-26T08:31:30.974Z,5.13
2022-11-26T08:33:59.733Z,4.82
2022-11-26T08:36:28.256Z,7.03
2022-11-26T08:38:55.872Z,5.03
2022-11-26T08:41:22.865Z,4.55
2022-11-26T08:44:06.977Z,5.53
2022-11-26T08:46:38.693Z,7.78
2022-11-26T08:49:07.530Z,5.82
2022-11-26T08:51:34.752Z,7.68
2022-11-26T08:54:02.266Z,12.75
2022-11-26T08:56:29.428Z,6.88
2022-11-26T08:58:56.369Z,24.50
2022-11-26T09:01:30.117Z,5.32
2022-11-26T09:03:59.816Z,6.25
2022-11-26T09:06:29.996Z,8.35
2022-11-26T09:09:17.166Z,7.72
2022-11-26T09:12:04.397Z,9.55
2022-11-26T09:14:38.343Z,8.85
2022-11-26T09:17:07.565Z,4.63
2022-11-26T09:19:34.347Z,7.03
2022-11-26T09:22:01.308Z,4.72
2022-11-26T09:24:28.135Z,4.78
2022-11-26T09:26:54.849Z,4.90
2022-11-26T09:29:23.617Z,3.17
2022-11-26T09:34:38.821Z,4.40
2022-11-26T09:37:06.039Z,4.00
2022-11-26T09:39:33.074Z,5.70
2022-11-26T09:42:06.748Z,5.30
2022-11-26T09:45:09.350Z,5.43
2022-11-26T09:47:42.969Z,5.82
2022-11-26T09:50:15.677Z,5.88
2022-11-26T09:52:57.938Z,5.65
2022-11-26T09:55:34.786Z,6.53
2022-11-26T09:58:27.730Z,5.30
2022-11-26T10:00:59.081Z,4.68
2022-11-26T10:06:31.026Z,6.32
2022-11-26T10:09:20.875Z,5.45
2022-11-26T10:12:06.351Z,3.55
2022-11-26T10:14:47.919Z,3.38
2022-11-26T10:17:39.487Z,2.78
2022-11-26T10:23:17.642Z,3.22
2022-11-26T10:25:51.914Z,3.33
2022-11-26T10:28:41.619Z,2.83
2022-11-26T10:31:26.000Z,2.72
2022-11-26T10:34:03.673Z,3.28
2022-11-26T10:36:39.240Z,3.08
2022-11-26T10:39:07.405Z,3.58
2022-11-26T10:41:36.261Z,3.90
2022-11-26T10:44:40.496Z,2.65
2022-11-26T10:47:31.713Z,3.42
2022-11-26T10:50:19.156Z,2.75
2022-11-26T10:52:54.194Z,3.45
2022-11-26T10:55:30.810Z,3.30
2022-11-26T10:58:06.207Z,6.07
2022-11-26T11:00:39.953Z,5.45
2022-11-26T11:03:51.784Z,4.72
2022-11-26T11:06:19.706Z,4.32
2022-11-26T11:08:53.797Z,4.22
2022-11-26T11:11:28.248Z,4.03
2022-11-26T11:13:56.036Z,3.60
2022-11-26T11:16:46.008Z,4.43
2022-11-26T11:19:26.200Z,3.92
2022-11-26T11:21:53.075Z,3.95
2022-11-26T11:24:27.235Z,4.43
2022-11-26T11:27:00.143Z,3.70
2022-11-26T11:29:32.941Z,3.63
2022-11-26T11:32:04.225Z,3.63
2022-11-26T11:34:39.294Z,3.70
2022-11-26T11:37:21.167Z,3.45
2022-11-26T11:40:05.745Z,3.25
2022-11-26T11:42:32.926Z,3.42
2022-11-26T11:45:01.095Z,2.97
2022-11-26T11:47:44.906Z,3.03
2022-11-26T11:50:36.283Z,3.05
2022-11-26T11:53:38.225Z,3.28
2022-11-26T11:56:34.113Z,3.47
2022-11-26T12:00:13.643Z,3.42
2022-11-26T12:02:56.022Z,2.90
2022-11-26T12:06:09.550Z,3.35
2022-11-26T12:08:41.497Z,3.20
2022-11-26T12:11:33.746Z,3.53
2022-11-26T12:14:23.985Z,3.30
2022-11-26T12:16:58.025Z,2.47
2022-11-26T12:19:48.529Z,3.70
2022-11-26T12:22:34.239Z,3.03
2022-11-26T12:25:35.329Z,1.52
2022-11-26T12:28:14.125Z,1.83
2022-11-26T12:30:48.683Z,2.80
2022-11-26T12:33:41.968Z,2.40
2022-11-26T12:37:12.946Z,2.63
2022-11-26T12:39:53.927Z,2.10
2022-11-26T12:42:45.517Z,2.45
2022-11-26T12:45:59.255Z,1.95
2022-11-26T12:49:03.742Z,2.40
2022-11-26T12:51:36.617Z,2.35
2022-11-26T12:54:36.862Z,3.00
2022-11-26T12:57:43.486Z,2.70
2022-11-26T13:00:26.215Z,2.42
2022-11-26T13:02:54.350Z,3.20
2022-11-26T13:05:31.546Z,5.25
2022-11-26T13:08:22.283Z,5.50
2022-11-26T13:11:30.701Z,6.07
2022-11-26T13:14:19.791Z,6.47
2022-11-26T13:17:01.655Z,6.03
2022-11-26T13:19:38.289Z,7.20
2022-11-26T13:22:47.852Z,7.07
2022-11-26T13:25:53.799Z,6.63
2022-11-26T13:28:47.553Z,6.20
2022-11-26T13:32:00.191Z,6.80
2022-11-26T13:34:50.803Z,6.93
2022-11-26T13:37:47.470Z,8.23
2022-11-26T13:40:57.297Z,8.65
2022-11-26T13:43:40.074Z,8.52
2022-11-26T13:46:23.836Z,10.05
2022-11-26T13:49:03.918Z,14.38
2022-11-26T13:51:43.162Z,18.02
2022-11-26T13:54:17.664Z,17.98
2022-11-26T13:56:47.041Z,20.90
2022-11-26T13:59:28.624Z,17.40
2022-11-26T14:01:56.553Z,14.18
2022-11-26T14:04:23.250Z,13.93
2022-11-26T14:07:05.202Z,14.32
2022-11-26T14:09:46.581Z,14.02
2022-11-26T14:14:43.616Z,11.20
2022-11-26T14:17:29.944Z,11.98
2022-11-26T14:20:00.042Z,12.77
2022-11-26T14:22:35.204Z,11.77
2022-11-26T14:25:09.679Z,13.57
2022-11-26T14:27:52.366Z,11.80
2022-11-26T14:30:27.395Z,11.57
2022-11-26T14:33:25.111Z,11.30
2022-11-26T14:35:56.474Z,11.57
2022-11-26T14:40:58.945Z,10.88
2022-11-26T14:43:26.073Z,10.85
2022-11-26T14:46:17.404Z,10.63
2022-11-26T14:51:23.623Z,9.98
2022-11-26T14:53:51.449Z,11.93
2022-11-26T14:56:19.529Z,13.18
2022-11-26T14:58:51.921Z,15.57
2022-11-26T15:01:20.155Z,13.80
2022-11-26T15:04:05.570Z,15.55
2022-11-26T15:06:42.854Z,15.32
2022-11-26T15:09:24.367Z,17.02
2022-11-26T15:12:10.197Z,16.17
2022-11-26T15:14:56.115Z,17.30
2022-11-26T15:17:36.515Z,15.93
2022-11-26T15:20:31.908Z,20.73
2022-11-26T15:23:01.858Z,20.25
2022-11-26T15:25:33.891Z,21.55
2022-11-26T15:28:14.732Z,31.80
2022-11-26T15:30:41.546Z,26.80
2022-11-26T15:33:08.229Z,23.30
2022-11-26T15:35:36.690Z,23.33
2022-11-26T15:38:18.550Z,18.98
2022-11-26T15:41:08.210Z,24.10
2022-11-26T15:43:46.154Z,20.42
2022-11-26T15:46:22.386Z,20.13
2022-11-26T15:48:57.042Z,18.15
2022-11-26T15:51:36.074Z,20.38
2022-11-26T15:54:19.258Z,21.38
2022-11-26T15:57:38.225Z,17.95
2022-11-26T16:00:40.809Z,17.38
2022-11-26T16:04:03.498Z,16.13
2022-11-26T16:06:38.938Z,19.55
2022-11-26T16:09:16.163Z,16.20
2022-11-26T16:12:00.836Z,20.23
2022-11-26T16:14:37.420Z,18.27
2022-11-26T16:17:12.014Z,16.20
2022-11-26T16:19:54.998Z,15.70
2022-11-26T16:22:28.310Z,13.52
2022-11-26T16:25:16.336Z,18.55
2022-11-26T16:27:47.723Z,15.95
2022-11-26T16:30:17.820Z,21.20
2022-11-26T16:32:44.545Z,19.48
2022-11-26T16:35:37.417Z,17.73
2022-11-26T16:37:58.514Z,15.32
2022-11-26T16:40:25.901Z,16.73
2022-11-26T16:42:52.637Z,15.50
2022-11-26T16:45:19.845Z,12.25
2022-11-26T16:47:56.365Z,12.43
2022-11-26T16:50:26.696Z,12.60
2022-11-26T16:52:55.125Z,14.40
2022-11-26T16:55:25.583Z,13.35
2022-11-26T16:57:56.786Z,13.02
2022-11-26T17:02:54.002Z,11.57
2022-11-26T17:05:21.435Z,10.90
2022-11-26T17:07:58.862Z,9.65
2022-11-26T17:10:29.261Z,11.10
2022-11-26T17:12:56.965Z,10.80
2022-11-26T17:15:23.930Z,12.60
2022-11-26T17:18:01.347Z,10.80
2022-11-26T17:20:28.099Z,10.70
2022-11-26T17:22:55.092Z,12.02
2022-11-26T17:25:22.047Z,11.30
2022-11-26T17:27:48.982Z,11.77
2022-11-26T17:30:24.205Z,15.85
2022-11-26T17:32:51.658Z,14.55
2022-11-26T17:35:19.211Z,13.10
2022-11-26T17:37:46.657Z,10.10
2022-11-26T17:40:22.936Z,10.00
2022-11-26T17:42:50.077Z,10.25
2022-11-26T17:45:18.325Z,9.32
2022-11-26T17:47:45.562Z,9.88
2022-11-26T17:50:33.390Z,10.43
2022-11-26T17:53:00.104Z,8.98
2022-11-26T17:55:27.452Z,8.88
2022-11-26T17:57:55.275Z,11.45
2022-11-26T18:00:28.260Z,8.40
2022-11-26T18:02:56.126Z,10.35
2022-11-26T18:05:23.790Z,10.73
2022-11-26T18:07:50.983Z,10.98
2022-11-26T18:10:20.857Z,11.40
2022-11-26T18:12:48.845Z,12.35
2022-11-26T18:15:26.925Z,11.70
2022-11-26T18:17:55.286Z,15.48
2022-11-26T18:20:26.983Z,12.60
2022-11-26T18:23:12.484Z,13.13
2022-11-26T18:26:03.318Z,15.48
2022-11-26T18:28:30.083Z,10.90
2022-11-26T18:30:58.585Z,17.13
2022-11-26T18:33:47.272Z,10.25
2022-11-26T18:36:14.172Z,10.55
2022-11-26T18:38:41.112Z,12.40
2022-11-26T18:41:08.308Z,13.48
2022-11-26T18:43:38.635Z,15.80
2022-11-26T18:46:11.105Z,15.13
2022-11-26T18:48:39.398Z,12.32
2022-11-26T18:51:07.025Z,17.45
2022-11-26T18:53:34.303Z,14.68
2022-11-26T18:56:01.854Z,18.45
2022-11-26T18:58:29.939Z,14.70
2022-11-26T19:00:58.573Z,13.77
2022-11-26T19:03:27.296Z,18.63
2022-11-26T19:05:54.691Z,14.23
2022-11-26T19:08:21.841Z,12.73
2022-11-26T19:10:48.742Z,14.18
2022-11-26T19:13:16.101Z,15.00
2022-11-26T19:15:44.946Z,11.85
2022-11-26T19:18:13.682Z,9.98
2022-11-26T19:20:52.828Z,11.95
2022-11-26T19:23:24.266Z,13.75
2022-11-26T19:28:18.282Z,11.57
2022-11-26T19:30:45.043Z,8.98
2022-11-26T19:33:11.805Z,8.55
2022-11-26T19:35:40.091Z,10.07
2022-11-26T19:38:06.861Z,6.93
2022-11-26T19:40:33.664Z,13.45
2022-11-26T19:43:00.398Z,9.23
2022-11-26T19:45:27.137Z,9.63
2022-11-26T19:47:53.976Z,7.70
2022-11-26T19:50:20.712Z,8.23
2022-11-26T19:52:48.175Z,8.02
2022-11-26T19:55:15.044Z,6.82
2022-11-26T19:57:41.778Z,6.78
2022-11-26T20:00:09.649Z,10.00
2022-11-26T20:02:36.598Z,6.38
2022-11-26T20:05:04.420Z,6.68
2022-11-26T20:07:31.197Z,6.03
2022-11-26T20:09:58.041Z,7.22
2022-11-26T20:12:24.782Z,6.32
2022-11-26T20:14:51.519Z,6.72
2022-11-26T20:17:18.361Z,7.07
2022-11-26T20:19:45.849Z,13.90
2022-11-26T20:22:12.570Z,18.48
2022-11-26T20:24:39.356Z,12.30
2022-11-26T20:27:06.187Z,10.77
2022-11-26T20:29:33.012Z,8.63
2022-11-26T20:31:59.805Z,17.10
2022-11-26T20:34:27.710Z,11.15
2022-11-26T20:36:54.524Z,9.52
2022-11-26T20:39:23.448Z,8.65
2022-11-26T20:41:51.090Z,17.40
2022-11-26T20:44:17.854Z,12.02
2022-11-26T20:46:44.663Z,9.65
2022-11-26T20:49:11.673Z,14.52
2022-11-26T20:51:39.067Z,15.50
2022-11-26T20:54:05.909Z,16.75
2022-11-26T20:56:33.200Z,15.27
2022-11-26T20:59:01.462Z,18.27
2022-11-26T21:01:29.847Z,8.00
2022-11-26T21:03:58.020Z,7.78
2022-11-26T21:06:30.432Z,7.50
2022-11-26T21:09:01.091Z,7.07
2022-11-26T21:11:28.882Z,8.85
2022-11-26T21:13:58.071Z,6.88
2022-11-26T21:16:24.846Z,5.93
2022-11-26T21:18:55.226Z,16.03
2022-11-26T21:21:23.951Z,7.33
2022-11-26T21:23:51.376Z,8.37
2022-11-26T21:26:26.260Z,9.25
2022-11-26T21:28:59.420Z,10.73
2022-11-26T21:31:31.229Z,7.07
2022-11-26T21:34:07.192Z,5.47
2022-11-26T21:36:36.106Z,5.63
2022-11-26T21:39:04.280Z,6.75
2022-11-26T21:41:33.364Z,5.35
2022-11-26T21:44:31.638Z,6.97
2022-11-26T21:51:34.889Z,7.43
2022-11-26T21:54:23.402Z,5.60
2022-11-26T21:56:50.530Z,8.32
2022-11-26T21:59:38.493Z,7.40
2022-11-26T22:02:29.046Z,7.07
2022-11-26T22:05:14.554Z,7.40
2022-11-26T22:08:03.143Z,7.55
2022-11-26T22:10:40.053Z,6.75
2022-11-26T22:13:06.806Z,7.18
2022-11-26T22:15:33.538Z,7.53
2022-11-26T22:18:00.253Z,6.68
2022-11-26T22:20:26.999Z,7.18
2022-11-26T22:22:53.726Z,8.32
2022-11-26T22:25:21.363Z,7.35
2022-11-26T22:27:48.077Z,7.93
2022-11-26T22:30:15.252Z,7.80
2022-11-26T22:32:41.994Z,7.40
2022-11-26T22:35:09.870Z,7.40
2022-11-26T22:37:36.583Z,8.07
2022-11-26T22:40:03.882Z,8.03
2022-11-26T22:42:30.634Z,7.63
2022-11-26T22:44:57.381Z,9.83
2022-11-26T22:47:24.102Z,7.70
2022-11-26T22:49:50.850Z,7.43
2022-11-26T22:52:17.612Z,7.30
2022-11-26T22:54:44.382Z,6.57
2022-11-26T22:57:11.137Z,6.80
2022-11-26T22:59:38.200Z,6.67
2022-11-26T23:02:05.168Z,6.53
2022-11-26T23:04:31.905Z,6.40
2022-11-26T23:06:58.642Z,6.30
2022-11-26T23:09:25.445Z,5.83
2022-11-26T23:11:52.221Z,5.47
2022-11-26T23:14:18.942Z,7.87
2022-11-26T23:16:45.725Z,6.50
2022-11-26T23:19:16.911Z,7.67
2022-11-26T23:21:46.550Z,8.68
2022-11-26T23:24:15.189Z,5.83
2022-11-26T23:26:42.429Z,10.83
2022-11-26T23:29:10.216Z,14.20
2022-11-26T23:31:43.587Z,11.40
2022-11-26T23:34:11.330Z,8.97
2022-11-26T23:36:39.258Z,5.63
2022-11-26T23:39:08.694Z,5.50
2022-11-26T23:41:36.304Z,5.47
2022-11-26T23:44:03.589Z,5.00
2022-11-26T23:46:32.630Z,5.63
2022-11-26T23:48:59.495Z,4.97
2022-11-26T23:51:30.143Z,5.27
2022-11-26T23:53:57.126Z,8.38
2022-11-26T23:56:32.673Z,8.03
2022-11-26T23:59:02.815Z,8.70
